sensor_id;sensor_type;location;lat;lon;timestamp;pressure;altitude;pressure_sealevel;temperature;humidity
43115;BME280;28727;50.068;14.452;2022-11-12T00:01:48;101030.13;;;7.22;80.17
43115;BME280;28727;50.068;14.452;2022-11-12T00:04:41;101024.25;;;7.18;80.15
43115;BME280;28727;50.068;14.452;2022-11-12T00:07:31;101031.28;;;7.18;79.87
43115;BME280;28727;50.068;14.452;2022-11-12T00:10:22;101029.69;;;7.15;80.29
43115;BME280;28727;50.068;14.452;2022-11-12T00:13:12;101029.78;;;7.14;80.76
43115;BME280;28727;50.068;14.452;2022-11-12T00:16:03;101028.44;;;7.08;80.32
43115;BME280;28727;50.068;14.452;2022-11-12T00:18:57;101036.63;;;7.04;80.04
43115;BME280;28727;50.068;14.452;2022-11-12T00:21:47;101045.53;;;7.01;80.40
43115;BME280;28727;50.068;14.452;2022-11-12T00:24:37;101038.91;;;6.95;80.33
43115;BME280;28727;50.068;14.452;2022-11-12T00:27:28;101035.59;;;6.93;80.36
43115;BME280;28727;50.068;14.452;2022-11-12T00:30:18;101033.03;;;6.92;80.68
43115;BME280;28727;50.068;14.452;2022-11-12T00:33:08;101044.59;;;6.89;80.72
43115;BME280;28727;50.068;14.452;2022-11-12T00:35:58;101037.88;;;6.85;80.92
43115;BME280;28727;50.068;14.452;2022-11-12T00:38:49;101038.09;;;6.82;80.81
43115;BME280;28727;50.068;14.452;2022-11-12T00:41:39;101042.69;;;6.79;80.45
43115;BME280;28727;50.068;14.452;2022-11-12T00:44:29;101046.56;;;6.73;80.15
43115;BME280;28727;50.068;14.452;2022-11-12T00:47:19;101045.84;;;6.71;80.21
43115;BME280;28727;50.068;14.452;2022-11-12T00:50:09;101044.34;;;6.67;80.81
43115;BME280;28727;50.068;14.452;2022-11-12T00:53:00;101041.09;;;6.64;80.67
43115;BME280;28727;50.068;14.452;2022-11-12T00:55:50;101042.13;;;6.61;81.33
43115;BME280;28727;50.068;14.452;2022-11-12T00:58:41;101045.81;;;6.58;81.15
43115;BME280;28727;50.068;14.452;2022-11-12T01:01:31;101048.63;;;6.55;80.90
43115;BME280;28727;50.068;14.452;2022-11-12T01:04:21;101053.97;;;6.54;81.30
43115;BME280;28727;50.068;14.452;2022-11-12T01:07:11;101047.16;;;6.51;81.53
43115;BME280;28727;50.068;14.452;2022-11-12T01:10:02;101044.53;;;6.51;81.22
43115;BME280;28727;50.068;14.452;2022-11-12T01:12:53;101041.28;;;6.48;81.26
43115;BME280;28727;50.068;14.452;2022-11-12T01:15:43;101038.84;;;6.45;80.69
43115;BME280;28727;50.068;14.452;2022-11-12T01:18:33;101036.53;;;6.40;81.11
43115;BME280;28727;50.068;14.452;2022-11-12T01:21:26;101036.63;;;6.39;80.91
43115;BME280;28727;50.068;14.452;2022-11-12T01:24:17;101034.50;;;6.31;80.74
43115;BME280;28727;50.068;14.452;2022-11-12T01:27:07;101032.09;;;6.28;80.87
43115;BME280;28727;50.068;14.452;2022-11-12T01:29:57;101035.00;;;6.24;81.46
43115;BME280;28727;50.068;14.452;2022-11-12T01:32:50;101031.63;;;6.22;81.31
43115;BME280;28727;50.068;14.452;2022-11-12T01:35:40;101038.03;;;6.18;81.46
43115;BME280;28727;50.068;14.452;2022-11-12T01:38:34;101036.34;;;6.16;81.65
43115;BME280;28727;50.068;14.452;2022-11-12T01:41:28;101036.66;;;6.12;81.58
43115;BME280;28727;50.068;14.452;2022-11-12T01:44:21;101039.44;;;6.09;81.61
43115;BME280;28727;50.068;14.452;2022-11-12T01:47:22;101048.16;;;6.09;81.51
43115;BME280;28727;50.068;14.452;2022-11-12T01:50:18;101038.53;;;6.10;81.47
43115;BME280;28727;50.068;14.452;2022-11-12T01:53:12;101031.50;;;6.10;81.45
43115;BME280;28727;50.068;14.452;2022-11-12T01:56:04;101035.91;;;6.10;81.57
43115;BME280;28727;50.068;14.452;2022-11-12T01:58:59;101036.91;;;6.07;81.35
43115;BME280;28727;50.068;14.452;2022-11-12T02:01:51;101041.31;;;6.07;81.30
43115;BME280;28727;50.068;14.452;2022-11-12T02:04:41;101037.78;;;6.08;81.51
43115;BME280;28727;50.068;14.452;2022-11-12T02:07:33;101041.72;;;6.01;81.48
43115;BME280;28727;50.068;14.452;2022-11-12T02:10:25;101026.94;;;6.00;82.03
43115;BME280;28727;50.068;14.452;2022-11-12T02:13:16;101023.19;;;6.04;82.31
43115;BME280;28727;50.068;14.452;2022-11-12T02:16:40;101023.09;;;6.05;82.16
43115;BME280;28727;50.068;14.452;2022-11-12T02:19:31;101022.78;;;6.10;82.50
43115;BME280;28727;50.068;14.452;2022-11-12T02:22:25;101022.78;;;6.10;82.31
43115;BME280;28727;50.068;14.452;2022-11-12T02:25:21;101019.25;;;5.97;82.36
43115;BME280;28727;50.068;14.452;2022-11-12T02:28:12;101015.78;;;5.96;83.28
43115;BME280;28727;50.068;14.452;2022-11-12T02:31:03;101005.97;;;6.00;83.42
43115;BME280;28727;50.068;14.452;2022-11-12T02:33:53;101009.31;;;6.02;83.90
43115;BME280;28727;50.068;14.452;2022-11-12T02:36:43;101011.09;;;6.01;83.77
43115;BME280;28727;50.068;14.452;2022-11-12T02:39:33;101008.03;;;5.95;83.67
43115;BME280;28727;50.068;14.452;2022-11-12T02:42:24;101012.44;;;5.80;84.34
43115;BME280;28727;50.068;14.452;2022-11-12T02:45:14;101006.34;;;5.80;85.07
43115;BME280;28727;50.068;14.452;2022-11-12T02:48:05;101013.78;;;5.87;85.37
43115;BME280;28727;50.068;14.452;2022-11-12T02:50:55;101008.31;;;5.90;85.22
43115;BME280;28727;50.068;14.452;2022-11-12T02:53:45;101016.31;;;5.89;84.86
43115;BME280;28727;50.068;14.452;2022-11-12T02:56:35;101014.50;;;5.89;85.41
43115;BME280;28727;50.068;14.452;2022-11-12T02:59:26;101008.03;;;5.95;85.32
43115;BME280;28727;50.068;14.452;2022-11-12T03:02:16;101005.31;;;5.96;84.85
43115;BME280;28727;50.068;14.452;2022-11-12T03:05:06;101011.16;;;5.87;84.60
43115;BME280;28727;50.068;14.452;2022-11-12T03:07:58;101018.13;;;5.87;84.35
43115;BME280;28727;50.068;14.452;2022-11-12T03:10:49;101021.63;;;5.87;84.20
43115;BME280;28727;50.068;14.452;2022-11-12T03:13:40;101020.00;;;5.85;83.98
43115;BME280;28727;50.068;14.452;2022-11-12T03:16:31;101020.84;;;5.85;84.54
43115;BME280;28727;50.068;14.452;2022-11-12T03:19:21;101016.84;;;5.80;83.82
43115;BME280;28727;50.068;14.452;2022-11-12T03:22:11;101016.75;;;5.81;84.40
43115;BME280;28727;50.068;14.452;2022-11-12T03:25:02;101017.59;;;5.82;84.00
43115;BME280;28727;50.068;14.452;2022-11-12T03:28:03;101020.69;;;5.74;83.54
43115;BME280;28727;50.068;14.452;2022-11-12T03:30:59;101024.34;;;5.71;83.71
43115;BME280;28727;50.068;14.452;2022-11-12T03:33:49;101022.94;;;5.66;84.17
43115;BME280;28727;50.068;14.452;2022-11-12T03:36:39;101032.25;;;5.57;83.78
43115;BME280;28727;50.068;14.452;2022-11-12T03:39:30;101028.31;;;5.50;83.65
43115;BME280;28727;50.068;14.452;2022-11-12T03:42:20;101031.03;;;5.34;83.99
43115;BME280;28727;50.068;14.452;2022-11-12T03:45:10;101031.72;;;5.24;84.10
43115;BME280;28727;50.068;14.452;2022-11-12T03:48:01;101022.53;;;5.17;84.26
43115;BME280;28727;50.068;14.452;2022-11-12T03:50:51;101027.47;;;5.21;84.88
43115;BME280;28727;50.068;14.452;2022-11-12T03:53:41;101026.47;;;5.24;84.51
43115;BME280;28727;50.068;14.452;2022-11-12T03:56:32;101031.59;;;5.25;84.42
43115;BME280;28727;50.068;14.452;2022-11-12T03:59:22;101020.94;;;5.28;84.52
43115;BME280;28727;50.068;14.452;2022-11-12T04:02:12;101024.28;;;5.30;84.50
43115;BME280;28727;50.068;14.452;2022-11-12T04:05:04;101020.72;;;5.31;84.84
43115;BME280;28727;50.068;14.452;2022-11-12T04:08:19;101016.25;;;5.33;84.57
43115;BME280;28727;50.068;14.452;2022-11-12T04:11:24;101014.47;;;5.34;84.63
43115;BME280;28727;50.068;14.452;2022-11-12T04:14:15;101016.06;;;5.36;84.38
43115;BME280;28727;50.068;14.452;2022-11-12T04:17:05;101010.72;;;5.38;84.27
43115;BME280;28727;50.068;14.452;2022-11-12T04:20:14;101010.72;;;5.38;84.40
43115;BME280;28727;50.068;14.452;2022-11-12T04:23:22;101001.94;;;5.39;84.33
43115;BME280;28727;50.068;14.452;2022-11-12T04:26:12;101004.47;;;5.41;84.29
43115;BME280;28727;50.068;14.452;2022-11-12T04:29:11;100999.41;;;5.38;84.36
43115;BME280;28727;50.068;14.452;2022-11-12T04:32:27;101004.56;;;5.39;84.43
43115;BME280;28727;50.068;14.452;2022-11-12T04:35:17;101008.00;;;5.40;84.55
43115;BME280;28727;50.068;14.452;2022-11-12T04:38:08;101007.94;;;5.41;84.31
43115;BME280;28727;50.068;14.452;2022-11-12T04:41:00;100999.09;;;5.42;84.16
43115;BME280;28727;50.068;14.452;2022-11-12T04:44:10;101003.63;;;5.40;84.46
43115;BME280;28727;50.068;14.452;2022-11-12T04:47:19;101007.81;;;5.43;84.89
43115;BME280;28727;50.068;14.452;2022-11-12T04:50:14;101005.19;;;5.43;84.47
43115;BME280;28727;50.068;14.452;2022-11-12T04:53:05;101007.72;;;5.44;84.37
43115;BME280;28727;50.068;14.452;2022-11-12T04:55:56;101005.94;;;5.45;84.22
43115;BME280;28727;50.068;14.452;2022-11-12T04:58:47;101005.47;;;5.38;84.42
43115;BME280;28727;50.068;14.452;2022-11-12T05:01:37;101011.41;;;5.42;84.48
43115;BME280;28727;50.068;14.452;2022-11-12T05:04:27;101008.47;;;5.46;84.42
43115;BME280;28727;50.068;14.452;2022-11-12T05:07:17;101007.09;;;5.41;84.11
43115;BME280;28727;50.068;14.452;2022-11-12T05:10:08;100997.63;;;5.38;84.02
43115;BME280;28727;50.068;14.452;2022-11-12T05:12:58;100998.38;;;5.40;84.25
43115;BME280;28727;50.068;14.452;2022-11-12T05:15:49;101006.16;;;5.27;83.66
43115;BME280;28727;50.068;14.452;2022-11-12T05:18:38;100995.09;;;5.08;84.23
43115;BME280;28727;50.068;14.452;2022-11-12T05:21:29;100996.03;;;5.07;84.97
43115;BME280;28727;50.068;14.452;2022-11-12T05:24:39;100995.88;;;5.10;84.56
43115;BME280;28727;50.068;14.452;2022-11-12T05:27:32;100998.97;;;5.17;84.43
43115;BME280;28727;50.068;14.452;2022-11-12T05:30:22;100996.34;;;5.17;84.01
43115;BME280;28727;50.068;14.452;2022-11-12T05:33:13;101001.75;;;5.14;83.69
43115;BME280;28727;50.068;14.452;2022-11-12T05:36:03;100996.41;;;5.15;83.72
43115;BME280;28727;50.068;14.452;2022-11-12T05:38:54;101001.66;;;5.15;83.40
43115;BME280;28727;50.068;14.452;2022-11-12T05:41:45;101007.84;;;5.14;83.45
43115;BME280;28727;50.068;14.452;2022-11-12T05:44:56;101008.03;;;5.11;83.28
43115;BME280;28727;50.068;14.452;2022-11-12T05:47:46;101014.84;;;5.14;83.23
43115;BME280;28727;50.068;14.452;2022-11-12T05:50:36;101011.84;;;5.20;83.14
43115;BME280;28727;50.068;14.452;2022-11-12T05:53:49;101006.16;;;5.27;82.97
43115;BME280;28727;50.068;14.452;2022-11-12T05:56:40;101010.38;;;5.30;82.83
43115;BME280;28727;50.068;14.452;2022-11-12T05:59:30;101011.84;;;5.34;82.32
43115;BME280;28727;50.068;14.452;2022-11-12T06:02:20;101017.00;;;5.35;82.34
43115;BME280;28727;50.068;14.452;2022-11-12T06:05:10;101025.81;;;5.34;82.34
43115;BME280;28727;50.068;14.452;2022-11-12T06:08:01;101026.72;;;5.33;82.45
43115;BME280;28727;50.068;14.452;2022-11-12T06:10:53;101033.00;;;5.31;82.34
43115;BME280;28727;50.068;14.452;2022-11-12T06:13:43;101035.06;;;5.26;82.14
43115;BME280;28727;50.068;14.452;2022-11-12T06:16:34;101043.19;;;5.21;81.54
43115;BME280;28727;50.068;14.452;2022-11-12T06:19:26;101034.78;;;5.16;81.61
43115;BME280;28727;50.068;14.452;2022-11-12T06:22:16;101045.63;;;5.10;81.88
43115;BME280;28727;50.068;14.452;2022-11-12T06:25:06;101044.78;;;5.10;82.10
43115;BME280;28727;50.068;14.452;2022-11-12T06:27:56;101042.06;;;5.11;82.22
43115;BME280;28727;50.068;14.452;2022-11-12T06:30:47;101038.97;;;5.05;82.12
43115;BME280;28727;50.068;14.452;2022-11-12T06:33:40;101051.75;;;4.95;82.06
43115;BME280;28727;50.068;14.452;2022-11-12T06:36:30;101056.53;;;4.88;82.72
43115;BME280;28727;50.068;14.452;2022-11-12T06:39:21;101060.44;;;4.81;83.37
43115;BME280;28727;50.068;14.452;2022-11-12T06:42:11;101065.50;;;4.84;83.32
43115;BME280;28727;50.068;14.452;2022-11-12T06:45:02;101069.75;;;4.71;82.59
43115;BME280;28727;50.068;14.452;2022-11-12T06:47:56;101074.66;;;4.47;83.08
43115;BME280;28727;50.068;14.452;2022-11-12T06:50:46;101077.34;;;4.46;84.20
43115;BME280;28727;50.068;14.452;2022-11-12T06:53:37;101081.19;;;4.54;84.84
43115;BME280;28727;50.068;14.452;2022-11-12T06:56:30;101082.47;;;4.63;84.53
43115;BME280;28727;50.068;14.452;2022-11-12T06:59:21;101074.91;;;4.73;84.23
43115;BME280;28727;50.068;14.452;2022-11-12T07:02:11;101078.22;;;4.76;84.10
43115;BME280;28727;50.068;14.452;2022-11-12T07:05:01;101082.13;;;4.83;83.59
43115;BME280;28727;50.068;14.452;2022-11-12T07:07:53;101088.78;;;4.89;83.42
43115;BME280;28727;50.068;14.452;2022-11-12T07:10:43;101092.84;;;4.94;83.33
43115;BME280;28727;50.068;14.452;2022-11-12T07:13:34;101089.75;;;5.02;83.04
43115;BME280;28727;50.068;14.452;2022-11-12T07:16:25;101082.56;;;5.06;82.82
43115;BME280;28727;50.068;14.452;2022-11-12T07:19:15;101077.50;;;5.03;83.13
43115;BME280;28727;50.068;14.452;2022-11-12T07:22:05;101080.53;;;5.11;82.85
43115;BME280;28727;50.068;14.452;2022-11-12T07:24:55;101082.00;;;5.15;82.64
43115;BME280;28727;50.068;14.452;2022-11-12T07:27:45;101088.94;;;5.16;82.68
43115;BME280;28727;50.068;14.452;2022-11-12T07:30:35;101091.56;;;5.16;82.38
43115;BME280;28727;50.068;14.452;2022-11-12T07:33:27;101096.97;;;5.13;83.01
43115;BME280;28727;50.068;14.452;2022-11-12T07:36:19;101098.50;;;5.17;82.90
43115;BME280;28727;50.068;14.452;2022-11-12T07:39:10;101100.06;;;5.19;82.09
43115;BME280;28727;50.068;14.452;2022-11-12T07:42:02;101102.97;;;5.15;82.06
43115;BME280;28727;50.068;14.452;2022-11-12T07:44:52;101106.50;;;5.14;82.10
43115;BME280;28727;50.068;14.452;2022-11-12T07:47:42;101102.31;;;5.11;82.31
43115;BME280;28727;50.068;14.452;2022-11-12T07:50:32;101097.66;;;5.16;82.34
43115;BME280;28727;50.068;14.452;2022-11-12T07:53:22;101105.06;;;5.24;82.41
43115;BME280;28727;50.068;14.452;2022-11-12T07:56:16;101090.63;;;5.31;82.58
43115;BME280;28727;50.068;14.452;2022-11-12T07:59:09;101087.56;;;5.39;82.44
43115;BME280;28727;50.068;14.452;2022-11-12T08:01:59;101089.72;;;5.46;82.32
43115;BME280;28727;50.068;14.452;2022-11-12T08:04:49;101085.97;;;5.50;82.46
43115;BME280;28727;50.068;14.452;2022-11-12T08:07:40;101083.81;;;5.57;82.46
43115;BME280;28727;50.068;14.452;2022-11-12T08:10:30;101085.84;;;5.66;81.75
43115;BME280;28727;50.068;14.452;2022-11-12T08:13:20;101081.78;;;5.48;80.63
43115;BME280;28727;50.068;14.452;2022-11-12T08:16:10;101087.81;;;5.48;80.99
43115;BME280;28727;50.068;14.452;2022-11-12T08:19:00;101086.59;;;5.54;80.92
43115;BME280;28727;50.068;14.452;2022-11-12T08:21:50;101075.75;;;5.60;80.67
43115;BME280;28727;50.068;14.452;2022-11-12T08:24:41;101078.09;;;5.50;80.80
43115;BME280;28727;50.068;14.452;2022-11-12T08:27:34;101076.88;;;5.56;80.53
43115;BME280;28727;50.068;14.452;2022-11-12T08:30:28;101078.13;;;5.64;80.94
43115;BME280;28727;50.068;14.452;2022-11-12T08:33:19;101079.59;;;5.68;80.69
43115;BME280;28727;50.068;14.452;2022-11-12T08:36:11;101087.38;;;5.70;80.20
43115;BME280;28727;50.068;14.452;2022-11-12T08:39:01;101087.66;;;5.65;79.86
43115;BME280;28727;50.068;14.452;2022-11-12T08:41:51;101088.09;;;5.72;79.83
43115;BME280;28727;50.068;14.452;2022-11-12T08:44:41;101089.41;;;5.79;79.59
43115;BME280;28727;50.068;14.452;2022-11-12T08:47:32;101087.25;;;5.86;79.51
43115;BME280;28727;50.068;14.452;2022-11-12T08:50:22;101087.75;;;5.92;79.61
43115;BME280;28727;50.068;14.452;2022-11-12T08:53:14;101089.91;;;6.00;79.47
43115;BME280;28727;50.068;14.452;2022-11-12T08:56:04;101085.38;;;6.02;79.31
43115;BME280;28727;50.068;14.452;2022-11-12T08:58:54;101085.75;;;6.10;79.48
43115;BME280;28727;50.068;14.452;2022-11-12T09:01:45;101087.44;;;6.11;79.43
43115;BME280;28727;50.068;14.452;2022-11-12T09:04:35;101084.59;;;6.14;79.33
43115;BME280;28727;50.068;14.452;2022-11-12T09:07:25;101089.38;;;6.22;79.32
43115;BME280;28727;50.068;14.452;2022-11-12T09:10:36;101094.22;;;6.28;79.42
43115;BME280;28727;50.068;14.452;2022-11-12T09:13:26;101093.72;;;6.35;78.20
43115;BME280;28727;50.068;14.452;2022-11-12T09:16:16;101097.88;;;6.25;78.34
43115;BME280;28727;50.068;14.452;2022-11-12T09:19:06;101102.25;;;6.12;79.15
43115;BME280;28727;50.068;14.452;2022-11-12T09:21:56;101098.84;;;6.24;79.06
43115;BME280;28727;50.068;14.452;2022-11-12T09:24:46;101109.22;;;6.26;79.15
43115;BME280;28727;50.068;14.452;2022-11-12T09:27:37;101099.16;;;6.32;78.82
43115;BME280;28727;50.068;14.452;2022-11-12T09:30:27;101101.44;;;6.51;78.16
43115;BME280;28727;50.068;14.452;2022-11-12T09:33:23;101098.88;;;6.64;77.48
43115;BME280;28727;50.068;14.452;2022-11-12T09:36:13;101100.28;;;6.82;77.21
43115;BME280;28727;50.068;14.452;2022-11-12T09:39:03;101095.16;;;6.93;76.74
43115;BME280;28727;50.068;14.452;2022-11-12T09:41:54;101093.69;;;7.14;76.44
43115;BME280;28727;50.068;14.452;2022-11-12T09:48:01;101083.00;;;7.30;75.07
43115;BME280;28727;50.068;14.452;2022-11-12T09:51:00;101083.53;;;7.48;74.77
43115;BME280;28727;50.068;14.452;2022-11-12T09:53:57;101081.59;;;7.62;73.61
43115;BME280;28727;50.068;14.452;2022-11-12T09:56:48;101083.59;;;7.71;73.70
43115;BME280;28727;50.068;14.452;2022-11-12T09:59:41;101080.41;;;7.79;73.76
43115;BME280;28727;50.068;14.452;2022-11-12T10:02:54;101070.81;;;7.91;73.25
43115;BME280;28727;50.068;14.452;2022-11-12T10:05:54;101067.22;;;7.92;72.64
43115;BME280;28727;50.068;14.452;2022-11-12T10:09:00;101065.59;;;8.02;72.33
43115;BME280;28727;50.068;14.452;2022-11-12T10:12:16;101056.91;;;8.49;71.92
43115;BME280;28727;50.068;14.452;2022-11-12T10:15:51;101046.00;;;9.34;69.90
43115;BME280;28727;50.068;14.452;2022-11-12T10:19:33;101031.94;;;10.33;68.32
43115;BME280;28727;50.068;14.452;2022-11-12T10:22:42;101037.16;;;10.96;64.82
43115;BME280;28727;50.068;14.452;2022-11-12T10:25:35;101029.59;;;11.73;63.80
43115;BME280;28727;50.068;14.452;2022-11-12T10:28:28;101024.41;;;12.50;61.20
43115;BME280;28727;50.068;14.452;2022-11-12T10:31:27;101017.94;;;13.01;58.64
43115;BME280;28727;50.068;14.452;2022-11-12T10:34:22;101010.81;;;13.48;57.89
43115;BME280;28727;50.068;14.452;2022-11-12T10:37:31;101010.94;;;14.01;53.55
43115;BME280;28727;50.068;14.452;2022-11-12T10:43:25;101004.13;;;14.69;53.36
43115;BME280;28727;50.068;14.452;2022-11-12T10:46:21;101009.28;;;14.97;51.01
43115;BME280;28727;50.068;14.452;2022-11-12T10:52:19;100997.38;;;15.61;49.75
43115;BME280;28727;50.068;14.452;2022-11-12T10:55:26;100992.66;;;16.13;49.05
43115;BME280;28727;50.068;14.452;2022-11-12T10:58:17;100994.03;;;16.41;48.09
43115;BME280;28727;50.068;14.452;2022-11-12T11:01:15;100985.22;;;16.65;46.43
43115;BME280;28727;50.068;14.452;2022-11-12T11:04:32;100989.66;;;16.97;45.48
43115;BME280;28727;50.068;14.452;2022-11-12T11:07:24;100990.34;;;17.07;45.31
43115;BME280;28727;50.068;14.452;2022-11-12T11:10:24;100991.31;;;17.14;44.46
43115;BME280;28727;50.068;14.452;2022-11-12T11:16:13;100991.78;;;17.26;44.03
43115;BME280;28727;50.068;14.452;2022-11-12T11:19:05;100990.44;;;17.22;44.56
43115;BME280;28727;50.068;14.452;2022-11-12T11:22:00;100983.59;;;17.27;44.01
43115;BME280;28727;50.068;14.452;2022-11-12T11:25:18;100988.97;;;17.11;43.78
43115;BME280;28727;50.068;14.452;2022-11-12T11:28:41;100985.19;;;16.73;44.19
43115;BME280;28727;50.068;14.452;2022-11-12T11:32:03;100983.88;;;16.69;44.95
43115;BME280;28727;50.068;14.452;2022-11-12T11:38:20;100976.06;;;17.31;43.78
43115;BME280;28727;50.068;14.452;2022-11-12T11:41:37;100966.78;;;17.66;43.21
43115;BME280;28727;50.068;14.452;2022-11-12T11:44:40;100965.00;;;17.81;43.16
43115;BME280;28727;50.068;14.452;2022-11-12T11:47:47;100960.28;;;18.14;41.82
43115;BME280;28727;50.068;14.452;2022-11-12T11:50:58;100964.91;;;17.97;41.87
43115;BME280;28727;50.068;14.452;2022-11-12T11:54:31;100957.25;;;17.94;41.93
43115;BME280;28727;50.068;14.452;2022-11-12T11:57:28;100963.56;;;18.24;41.92
43115;BME280;28727;50.068;14.452;2022-11-12T12:00:20;100960.03;;;18.46;42.33
43115;BME280;28727;50.068;14.452;2022-11-12T12:03:24;100965.84;;;18.27;42.13
43115;BME280;28727;50.068;14.452;2022-11-12T12:06:27;100954.19;;;17.97;43.33
43115;BME280;28727;50.068;14.452;2022-11-12T12:09:31;100962.66;;;17.39;44.36
43115;BME280;28727;50.068;14.452;2022-11-12T12:12:44;100967.31;;;16.98;45.83
43115;BME280;28727;50.068;14.452;2022-11-12T12:25:34;100968.75;;;15.71;49.38
43115;BME280;28727;50.068;14.452;2022-11-12T12:28:45;100975.94;;;15.10;50.38
43115;BME280;28727;50.068;14.452;2022-11-12T12:31:47;100969.56;;;15.03;50.90
43115;BME280;28727;50.068;14.452;2022-11-12T12:34:46;100969.19;;;14.90;51.14
43115;BME280;28727;50.068;14.452;2022-11-12T12:37:42;100970.91;;;14.99;51.26
43115;BME280;28727;50.068;14.452;2022-11-12T12:41:13;100967.41;;;14.99;51.92
43115;BME280;28727;50.068;14.452;2022-11-12T12:44:08;100959.97;;;14.85;51.73
43115;BME280;28727;50.068;14.452;2022-11-12T12:46:59;100965.16;;;14.60;52.65
43115;BME280;28727;50.068;14.452;2022-11-12T12:49:51;100965.06;;;14.70;52.88
43115;BME280;28727;50.068;14.452;2022-11-12T12:53:00;100963.13;;;14.80;52.16
43115;BME280;28727;50.068;14.452;2022-11-12T12:55:52;100959.94;;;14.77;52.08
43115;BME280;28727;50.068;14.452;2022-11-12T12:58:45;100960.88;;;14.67;52.38
43115;BME280;28727;50.068;14.452;2022-11-12T13:01:36;100953.47;;;14.35;52.85
43115;BME280;28727;50.068;14.452;2022-11-12T13:04:56;100947.59;;;14.14;53.57
43115;BME280;28727;50.068;14.452;2022-11-12T13:07:47;100950.56;;;13.93;54.11
43115;BME280;28727;50.068;14.452;2022-11-12T13:13:30;100955.94;;;13.39;55.86
43115;BME280;28727;50.068;14.452;2022-11-12T13:17:10;100960.69;;;12.98;57.29
43115;BME280;28727;50.068;14.452;2022-11-12T13:22:51;100952.59;;;12.90;57.60
43115;BME280;28727;50.068;14.452;2022-11-12T13:25:41;100952.00;;;12.59;58.03
43115;BME280;28727;50.068;14.452;2022-11-12T13:28:31;100956.63;;;12.48;58.79
43115;BME280;28727;50.068;14.452;2022-11-12T13:31:27;100952.69;;;12.52;58.96
43115;BME280;28727;50.068;14.452;2022-11-12T13:37:19;100953.13;;;12.38;59.71
43115;BME280;28727;50.068;14.452;2022-11-12T13:40:16;100957.75;;;12.16;60.33
43115;BME280;28727;50.068;14.452;2022-11-12T13:43:15;100954.41;;;12.05;60.69
43115;BME280;28727;50.068;14.452;2022-11-12T13:49:11;100949.50;;;11.90;61.34
43115;BME280;28727;50.068;14.452;2022-11-12T13:52:05;100949.22;;;11.84;61.49
43115;BME280;28727;50.068;14.452;2022-11-12T13:55:22;100950.41;;;11.61;62.08
43115;BME280;28727;50.068;14.452;2022-11-12T13:58:25;100936.56;;;11.38;62.40
43115;BME280;28727;50.068;14.452;2022-11-12T14:01:19;100946.09;;;11.20;63.14
43115;BME280;28727;50.068;14.452;2022-11-12T14:04:15;100943.97;;;11.14;63.68
43115;BME280;28727;50.068;14.452;2022-11-12T14:10:40;100938.69;;;10.53;65.25
43115;BME280;28727;50.068;14.452;2022-11-12T14:13:47;100941.00;;;10.46;65.95
43115;BME280;28727;50.068;14.452;2022-11-12T14:20:05;100938.50;;;10.13;67.03
43115;BME280;28727;50.068;14.452;2022-11-12T14:26:36;100932.03;;;10.06;67.42
43115;BME280;28727;50.068;14.452;2022-11-12T14:29:26;100933.13;;;10.03;67.19
43115;BME280;28727;50.068;14.452;2022-11-12T14:32:24;100936.41;;;9.84;67.46
43115;BME280;28727;50.068;14.452;2022-11-12T14:41:15;100924.53;;;9.58;69.45
43115;BME280;28727;50.068;14.452;2022-11-12T14:44:17;100918.13;;;9.61;69.31
43115;BME280;28727;50.068;14.452;2022-11-12T14:47:08;100935.22;;;9.45;69.90
43115;BME280;28727;50.068;14.452;2022-11-12T14:49:58;100933.06;;;9.39;69.31
43115;BME280;28727;50.068;14.452;2022-11-12T14:52:54;100932.72;;;9.11;70.30
43115;BME280;28727;50.068;14.452;2022-11-12T14:55:51;100935.59;;;8.85;71.66
43115;BME280;28727;50.068;14.452;2022-11-12T14:58:42;100928.50;;;8.63;72.48
43115;BME280;28727;50.068;14.452;2022-11-12T15:01:35;100923.66;;;8.35;72.96
43115;BME280;28727;50.068;14.452;2022-11-12T15:04:51;100934.31;;;8.10;73.97
43115;BME280;28727;50.068;14.452;2022-11-12T15:08:01;100933.44;;;7.98;74.82
43115;BME280;28727;50.068;14.452;2022-11-12T15:10:51;100926.69;;;7.83;74.52
43115;BME280;28727;50.068;14.452;2022-11-12T15:13:42;100925.66;;;7.73;75.91
43115;BME280;28727;50.068;14.452;2022-11-12T15:16:33;100927.13;;;7.53;76.68
43115;BME280;28727;50.068;14.452;2022-11-12T15:19:29;100930.25;;;7.58;77.14
43115;BME280;28727;50.068;14.452;2022-11-12T15:22:21;100931.50;;;7.65;77.57
43115;BME280;28727;50.068;14.452;2022-11-12T15:25:20;100934.13;;;7.65;76.85
43115;BME280;28727;50.068;14.452;2022-11-12T15:28:23;100926.09;;;7.67;77.47
43115;BME280;28727;50.068;14.452;2022-11-12T15:31:19;100925.19;;;7.55;76.85
43115;BME280;28727;50.068;14.452;2022-11-12T15:37:31;100934.69;;;6.96;78.75
43115;BME280;28727;50.068;14.452;2022-11-12T15:40:30;100941.34;;;6.76;79.37
43115;BME280;28727;50.068;14.452;2022-11-12T15:43:30;100938.72;;;6.64;80.20
43115;BME280;28727;50.068;14.452;2022-11-12T15:46:24;100945.63;;;6.52;80.97
43115;BME280;28727;50.068;14.452;2022-11-12T15:49:15;100939.72;;;6.48;82.31
43115;BME280;28727;50.068;14.452;2022-11-12T15:52:05;100945.31;;;6.56;81.92
43115;BME280;28727;50.068;14.452;2022-11-12T15:54:55;100948.38;;;6.63;82.01
43115;BME280;28727;50.068;14.452;2022-11-12T15:57:50;100951.41;;;6.70;81.51
43115;BME280;28727;50.068;14.452;2022-11-12T16:00:40;100951.09;;;6.62;80.44
43115;BME280;28727;50.068;14.452;2022-11-12T16:03:31;100943.84;;;6.52;82.27
43115;BME280;28727;50.068;14.452;2022-11-12T16:06:21;100948.47;;;6.62;82.31
43115;BME280;28727;50.068;14.452;2022-11-12T16:09:11;100948.16;;;6.53;81.58